Pagrindinis puslapis
METAR-TAF:

METAR-TAF

Oro uostai :

Ha'il, Saudo Arabija

platuma: 27-26N, ilguma: 041-41E, Aukštis: 1015 m

Dabartinis oras

Ataskaita buvo paskelbta 1 valandą ir 13 minutes, ne 14:00 UTC
Vėjas 8 kt iš Šiaurės/Šiaurės Rytų
Temperatūra 19°C
Drėgmė 40%
Slėgis 1014 hPa
Matomumas: 8000 m

METAR: OEHL 291400Z 03008KT 8000 NSC 19/05 Q1014

Laikas: 18:13 (15:13 UTC)

Prognozė

Ataskaita buvo paskelbta 4 valandos ir 13 minutes, ne 11:00 UTC
Prognozė galioja nuo 29 metu 12 UTC su 30 metu 18 UTC
Vėjas 15 kt iš Šiaurės/Šiaurės Vakarų
Matomumas: 7000 m
Išsisklaidę debesys ne aukštis 4000 ft
Išsisklaidę debesys ne aukštis 10000 ft
Laikinai
nuo 29 metu 12 UTC su 29 metu 16 UTC
Mažai debesys ne aukštis 3500 ft, Liūtiniai kamuoliniai debesys.
perkūnija, lietus
Tapsmas
nuo 29 metu 22 UTC su 30 metu 00 UTC
Vėjas 3 kt nuo kintamojo kryptimis

TAF: OEHL 291100Z 2912/3018 33015KT 7000 SCT040 SCT100 TEMPO 2912/2916 TSRA FEW035CB BECMG 2922/3000 VRB03KT

Orai ataskaitas ir orų prognozės (METAR, TAF).

turimą stotys yra geltonos ir raudonos taškus žemėlapyje.

Perkelti pele per norėdami pamatyti stoties vardą.

Tada spustelėkite, norėdami matyti oro stebėjimo ir prognozės.

Norėdami pakeisti žemėlapį: spustelėkite ant žalios mygtukų su juodo kryžiaus žemyn,; žalią mygtuką su brūkšneliu, jei norite nutolinti; arba žalių rodyklių gretimoms žemėlapius.


METAR-TAF: